Main page
METAR-TAF:

METAR-TAF

Airports :

Aérodrome de Dax - Seyresse

Dax, France

latitude: 43-41N, longitude: 001-04W, elevation: 32 m

Current weather observation

The report was made 28 minutes ago, at 19:00 UTC
Wind 3 kt from the East
Temperature 14°C
Humidity 72%
Pressure 1014 hPa
Visibility: 6000 m

METAR: LFBY 281900Z AUTO 08003KT 6000 // ////// 14/09 Q1014

Time: 20:28 (19:28 UTC)

Forecast

The report was made 11 hours and 28 minutes ago, at 08:00 UTC
Forecast valid from 28 at 09 UTC to 28 at 18 UTC
Wind 5 kt from the Southwest
Visibility: 4000 m
Scattered clouds at a height of 1500 ft
Broken clouds at a height of 3000 ft
mist
Becoming
from 28 at 13 UTC to 28 at 15 UTC
Visibility 10 km or more
no clouds below 1500 m and no cumulonimbus

TAF: LFBY 280800Z 2809/2818 22005KT 4000 BR SCT015 BKN030 BECMG 2813/2815 CAVOK

Weather observations and forecasts of more than 4000 airports (METAR and TAF reports).

The available stations are represented by yellow and red dots on the map.

Hover mouse over dot to see the name of the station.

Then click to see weather observations and forecasts.

To change the map : click on the green buttons with a black cross to zoom in, on the green button with a dash to zoom out, or on the green arrows for adjacent maps.


METAR-TAF: